sensor_id;sensor_type;location;lat;lon;timestamp;P1;durP1;ratioP1;P2;durP2;ratioP2
46054;SDS011;31788;6.954;-71.872;2023-04-03T00:00:32;12.87;;;7.90;;
46054;SDS011;31788;6.954;-71.872;2023-04-03T00:02:58;10.73;;;8.10;;
46054;SDS011;31788;6.954;-71.872;2023-04-03T00:05:25;10.52;;;7.85;;
46054;SDS011;31788;6.954;-71.872;2023-04-03T00:07:52;11.27;;;8.00;;
46054;SDS011;31788;6.954;-71.872;2023-04-03T00:10:18;10.60;;;7.55;;
46054;SDS011;31788;6.954;-71.872;2023-04-03T00:12:45;9.00;;;6.68;;
46054;SDS011;31788;6.954;-71.872;2023-04-03T00:15:12;9.30;;;7.20;;
46054;SDS011;31788;6.954;-71.872;2023-04-03T00:17:38;10.18;;;7.38;;
46054;SDS011;31788;6.954;-71.872;2023-04-03T00:20:05;9.93;;;7.10;;
46054;SDS011;31788;6.954;-71.872;2023-04-03T00:22:32;8.85;;;7.50;;
46054;SDS011;31788;6.954;-71.872;2023-04-03T00:24:59;8.37;;;6.83;;
46054;SDS011;31788;6.954;-71.872;2023-04-03T00:27:25;8.93;;;7.25;;
46054;SDS011;31788;6.954;-71.872;2023-04-03T00:29:52;8.70;;;6.93;;
46054;SDS011;31788;6.954;-71.872;2023-04-03T00:32:19;8.65;;;6.45;;
46054;SDS011;31788;6.954;-71.872;2023-04-03T00:34:45;8.50;;;6.30;;
46054;SDS011;31788;6.954;-71.872;2023-04-03T00:37:12;7.47;;;6.47;;
46054;SDS011;31788;6.954;-71.872;2023-04-03T00:39:38;10.00;;;6.28;;
46054;SDS011;31788;6.954;-71.872;2023-04-03T00:42:05;9.52;;;5.97;;
46054;SDS011;31788;6.954;-71.872;2023-04-03T00:47:02;9.27;;;6.03;;
46054;SDS011;31788;6.954;-71.872;2023-04-03T00:49:31;11.38;;;7.70;;
46054;SDS011;31788;6.954;-71.872;2023-04-03T00:51:58;12.52;;;8.80;;
46054;SDS011;31788;6.954;-71.872;2023-04-03T00:54:25;17.33;;;9.35;;
46054;SDS011;31788;6.954;-71.872;2023-04-03T00:56:53;14.90;;;9.00;;
46054;SDS011;31788;6.954;-71.872;2023-04-03T00:59:25;11.40;;;9.00;;
46054;SDS011;31788;6.954;-71.872;2023-04-03T01:01:57;12.88;;;9.48;;
46054;SDS011;31788;6.954;-71.872;2023-04-03T01:04:28;10.10;;;8.32;;
46054;SDS011;31788;6.954;-71.872;2023-04-03T01:06:55;12.30;;;8.00;;
46054;SDS011;31788;6.954;-71.872;2023-04-03T01:09:30;11.88;;;8.05;;
46054;SDS011;31788;6.954;-71.872;2023-04-03T01:14:51;10.68;;;7.55;;
46054;SDS011;31788;6.954;-71.872;2023-04-03T01:22:35;10.23;;;7.03;;
46054;SDS011;31788;6.954;-71.872;2023-04-03T01:25:26;13.20;;;6.88;;
46054;SDS011;31788;6.954;-71.872;2023-04-03T01:27:53;11.45;;;6.35;;
46054;SDS011;31788;6.954;-71.872;2023-04-03T01:30:20;8.18;;;5.80;;
46054;SDS011;31788;6.954;-71.872;2023-04-03T01:32:50;10.02;;;5.82;;
46054;SDS011;31788;6.954;-71.872;2023-04-03T01:35:17;10.40;;;5.65;;
46054;SDS011;31788;6.954;-71.872;2023-04-03T01:37:43;14.45;;;9.30;;
46054;SDS011;31788;6.954;-71.872;2023-04-03T01:40:10;24.63;;;16.70;;
46054;SDS011;31788;6.954;-71.872;2023-04-03T01:42:36;24.70;;;15.77;;
46054;SDS011;31788;6.954;-71.872;2023-04-03T01:45:03;27.25;;;15.23;;
46054;SDS011;31788;6.954;-71.872;2023-04-03T01:47:30;27.08;;;15.57;;
46054;SDS011;31788;6.954;-71.872;2023-04-03T01:49:57;27.60;;;16.35;;
46054;SDS011;31788;6.954;-71.872;2023-04-03T01:52:23;32.80;;;18.02;;
46054;SDS011;31788;6.954;-71.872;2023-04-03T01:54:50;29.23;;;16.45;;
46054;SDS011;31788;6.954;-71.872;2023-04-03T01:57:17;31.33;;;16.30;;
46054;SDS011;31788;6.954;-71.872;2023-04-03T01:59:43;34.90;;;17.48;;
46054;SDS011;31788;6.954;-71.872;2023-04-03T02:02:10;29.92;;;18.05;;
46054;SDS011;31788;6.954;-71.872;2023-04-03T02:04:37;28.08;;;15.85;;
46054;SDS011;31788;6.954;-71.872;2023-04-03T02:07:04;27.15;;;15.40;;
46054;SDS011;31788;6.954;-71.872;2023-04-03T02:09:36;27.67;;;14.88;;
46054;SDS011;31788;6.954;-71.872;2023-04-03T02:12:03;33.70;;;16.27;;
46054;SDS011;31788;6.954;-71.872;2023-04-03T02:14:29;31.15;;;17.40;;
46054;SDS011;31788;6.954;-71.872;2023-04-03T02:16:57;31.77;;;16.73;;
46054;SDS011;31788;6.954;-71.872;2023-04-03T02:19:26;34.60;;;17.23;;
46054;SDS011;31788;6.954;-71.872;2023-04-03T02:21:52;35.53;;;17.50;;
46054;SDS011;31788;6.954;-71.872;2023-04-03T02:24:19;39.70;;;18.60;;
46054;SDS011;31788;6.954;-71.872;2023-04-03T02:26:45;37.05;;;18.83;;
46054;SDS011;31788;6.954;-71.872;2023-04-03T02:29:12;42.33;;;19.58;;
46054;SDS011;31788;6.954;-71.872;2023-04-03T02:31:39;43.03;;;20.65;;
46054;SDS011;31788;6.954;-71.872;2023-04-03T02:34:06;33.70;;;17.00;;
46054;SDS011;31788;6.954;-71.872;2023-04-03T02:36:33;35.53;;;17.20;;
46054;SDS011;31788;6.954;-71.872;2023-04-03T02:38:59;32.30;;;16.58;;
46054;SDS011;31788;6.954;-71.872;2023-04-03T02:41:28;28.87;;;12.97;;
46054;SDS011;31788;6.954;-71.872;2023-04-03T02:44:03;22.85;;;10.82;;
46054;SDS011;31788;6.954;-71.872;2023-04-03T02:46:31;18.10;;;9.25;;
46054;SDS011;31788;6.954;-71.872;2023-04-03T02:48:58;15.80;;;7.95;;
46054;SDS011;31788;6.954;-71.872;2023-04-03T02:51:25;13.27;;;7.18;;
46054;SDS011;31788;6.954;-71.872;2023-04-03T02:53:52;12.98;;;6.65;;
46054;SDS011;31788;6.954;-71.872;2023-04-03T02:56:18;11.50;;;6.18;;
46054;SDS011;31788;6.954;-71.872;2023-04-03T02:58:45;9.70;;;5.80;;
46054;SDS011;31788;6.954;-71.872;2023-04-03T03:01:12;9.88;;;5.47;;
46054;SDS011;31788;6.954;-71.872;2023-04-03T03:03:39;8.55;;;5.22;;
46054;SDS011;31788;6.954;-71.872;2023-04-03T03:06:07;8.87;;;5.40;;
46054;SDS011;31788;6.954;-71.872;2023-04-03T03:08:38;8.20;;;5.05;;
46054;SDS011;31788;6.954;-71.872;2023-04-03T03:11:05;8.82;;;5.40;;
46054;SDS011;31788;6.954;-71.872;2023-04-03T03:13:32;7.57;;;4.82;;
46054;SDS011;31788;6.954;-71.872;2023-04-03T03:16:01;8.57;;;4.43;;
46054;SDS011;31788;6.954;-71.872;2023-04-03T03:18:28;8.17;;;4.77;;
46054;SDS011;31788;6.954;-71.872;2023-04-03T03:20:56;6.65;;;4.30;;
46054;SDS011;31788;6.954;-71.872;2023-04-03T03:23:25;7.35;;;4.47;;
46054;SDS011;31788;6.954;-71.872;2023-04-03T03:25:56;7.13;;;4.15;;
46054;SDS011;31788;6.954;-71.872;2023-04-03T03:28:30;6.77;;;4.20;;
46054;SDS011;31788;6.954;-71.872;2023-04-03T03:30:57;6.95;;;3.90;;
46054;SDS011;31788;6.954;-71.872;2023-04-03T03:33:25;5.85;;;4.20;;
46054;SDS011;31788;6.954;-71.872;2023-04-03T03:35:52;6.10;;;4.20;;
46054;SDS011;31788;6.954;-71.872;2023-04-03T03:38:19;8.45;;;3.63;;
46054;SDS011;31788;6.954;-71.872;2023-04-03T03:40:47;6.07;;;4.20;;
46054;SDS011;31788;6.954;-71.872;2023-04-03T03:43:15;5.80;;;4.00;;
46054;SDS011;31788;6.954;-71.872;2023-04-03T03:45:42;7.55;;;3.75;;
46054;SDS011;31788;6.954;-71.872;2023-04-03T03:48:09;6.45;;;3.92;;
46054;SDS011;31788;6.954;-71.872;2023-04-03T03:50:36;7.50;;;4.03;;
46054;SDS011;31788;6.954;-71.872;2023-04-03T03:53:02;6.63;;;3.90;;
46054;SDS011;31788;6.954;-71.872;2023-04-03T03:55:29;5.70;;;3.70;;
46054;SDS011;31788;6.954;-71.872;2023-04-03T03:57:55;6.77;;;3.40;;
46054;SDS011;31788;6.954;-71.872;2023-04-03T04:00:22;4.53;;;3.30;;
46054;SDS011;31788;6.954;-71.872;2023-04-03T04:02:49;5.00;;;3.40;;
46054;SDS011;31788;6.954;-71.872;2023-04-03T04:05:16;4.63;;;3.15;;
46054;SDS011;31788;6.954;-71.872;2023-04-03T04:07:43;5.47;;;3.03;;
46054;SDS011;31788;6.954;-71.872;2023-04-03T04:10:10;6.63;;;3.40;;
46054;SDS011;31788;6.954;-71.872;2023-04-03T04:12:36;5.43;;;2.97;;
46054;SDS011;31788;6.954;-71.872;2023-04-03T04:15:03;4.97;;;3.35;;
46054;SDS011;31788;6.954;-71.872;2023-04-03T04:17:30;4.82;;;2.92;;
46054;SDS011;31788;6.954;-71.872;2023-04-03T04:19:58;5.68;;;2.90;;
46054;SDS011;31788;6.954;-71.872;2023-04-03T04:22:24;4.65;;;3.05;;
46054;SDS011;31788;6.954;-71.872;2023-04-03T04:24:51;4.75;;;2.80;;
46054;SDS011;31788;6.954;-71.872;2023-04-03T04:27:17;8.20;;;3.03;;
46054;SDS011;31788;6.954;-71.872;2023-04-03T04:29:44;6.72;;;3.00;;
46054;SDS011;31788;6.954;-71.872;2023-04-03T04:32:11;4.30;;;2.85;;
46054;SDS011;31788;6.954;-71.872;2023-04-03T04:34:37;5.13;;;2.75;;
46054;SDS011;31788;6.954;-71.872;2023-04-03T04:37:04;5.55;;;2.72;;
46054;SDS011;31788;6.954;-71.872;2023-04-03T04:39:30;4.82;;;2.70;;
46054;SDS011;31788;6.954;-71.872;2023-04-03T04:41:57;4.78;;;2.90;;
46054;SDS011;31788;6.954;-71.872;2023-04-03T04:44:23;4.63;;;2.70;;
46054;SDS011;31788;6.954;-71.872;2023-04-03T04:46:50;4.80;;;2.47;;
46054;SDS011;31788;6.954;-71.872;2023-04-03T04:49:17;5.22;;;2.70;;
46054;SDS011;31788;6.954;-71.872;2023-04-03T04:51:43;4.95;;;2.42;;
46054;SDS011;31788;6.954;-71.872;2023-04-03T04:54:10;3.85;;;2.38;;
46054;SDS011;31788;6.954;-71.872;2023-04-03T04:56:36;4.20;;;2.40;;
46054;SDS011;31788;6.954;-71.872;2023-04-03T04:59:03;5.40;;;2.65;;
46054;SDS011;31788;6.954;-71.872;2023-04-03T05:01:30;3.83;;;2.50;;
46054;SDS011;31788;6.954;-71.872;2023-04-03T05:03:56;6.35;;;2.85;;
46054;SDS011;31788;6.954;-71.872;2023-04-03T05:06:23;3.92;;;2.35;;
46054;SDS011;31788;6.954;-71.872;2023-04-03T05:08:49;4.55;;;2.40;;
46054;SDS011;31788;6.954;-71.872;2023-04-03T05:11:16;5.43;;;2.40;;
46054;SDS011;31788;6.954;-71.872;2023-04-03T05:13:43;6.25;;;2.50;;
46054;SDS011;31788;6.954;-71.872;2023-04-03T05:16:09;4.60;;;2.37;;
46054;SDS011;31788;6.954;-71.872;2023-04-03T05:18:36;3.17;;;2.40;;
46054;SDS011;31788;6.954;-71.872;2023-04-03T05:21:03;3.17;;;2.30;;
46054;SDS011;31788;6.954;-71.872;2023-04-03T05:23:30;4.18;;;2.42;;
46054;SDS011;31788;6.954;-71.872;2023-04-03T05:25:56;4.70;;;2.67;;
46054;SDS011;31788;6.954;-71.872;2023-04-03T05:28:23;3.20;;;2.30;;
46054;SDS011;31788;6.954;-71.872;2023-04-03T05:30:53;4.75;;;2.38;;
46054;SDS011;31788;6.954;-71.872;2023-04-03T05:33:20;4.80;;;2.67;;
46054;SDS011;31788;6.954;-71.872;2023-04-03T05:35:47;4.50;;;2.40;;
46054;SDS011;31788;6.954;-71.872;2023-04-03T05:38:14;5.05;;;2.58;;
46054;SDS011;31788;6.954;-71.872;2023-04-03T05:40:40;6.20;;;2.60;;
46054;SDS011;31788;6.954;-71.872;2023-04-03T05:43:07;5.38;;;2.63;;
46054;SDS011;31788;6.954;-71.872;2023-04-03T05:45:33;4.45;;;2.55;;
46054;SDS011;31788;6.954;-71.872;2023-04-03T05:48:00;6.35;;;2.60;;
46054;SDS011;31788;6.954;-71.872;2023-04-03T05:50:27;4.30;;;2.40;;
46054;SDS011;31788;6.954;-71.872;2023-04-03T05:52:54;3.72;;;2.58;;
46054;SDS011;31788;6.954;-71.872;2023-04-03T05:55:24;6.50;;;2.85;;
46054;SDS011;31788;6.954;-71.872;2023-04-03T05:57:50;7.05;;;2.60;;
46054;SDS011;31788;6.954;-71.872;2023-04-03T06:00:17;5.18;;;2.80;;
46054;SDS011;31788;6.954;-71.872;2023-04-03T06:02:44;4.28;;;2.53;;
46054;SDS011;31788;6.954;-71.872;2023-04-03T06:05:11;5.50;;;3.60;;
46054;SDS011;31788;6.954;-71.872;2023-04-03T06:07:38;5.53;;;3.50;;
46054;SDS011;31788;6.954;-71.872;2023-04-03T06:10:05;5.47;;;3.63;;
46054;SDS011;31788;6.954;-71.872;2023-04-03T06:12:34;7.07;;;3.92;;
46054;SDS011;31788;6.954;-71.872;2023-04-03T06:15:00;6.22;;;3.33;;
46054;SDS011;31788;6.954;-71.872;2023-04-03T06:17:28;4.72;;;2.83;;
46054;SDS011;31788;6.954;-71.872;2023-04-03T06:19:55;6.88;;;2.90;;
46054;SDS011;31788;6.954;-71.872;2023-04-03T06:22:23;4.88;;;3.30;;
46054;SDS011;31788;6.954;-71.872;2023-04-03T06:24:51;6.05;;;3.42;;
46054;SDS011;31788;6.954;-71.872;2023-04-03T06:27:17;5.90;;;4.22;;
46054;SDS011;31788;6.954;-71.872;2023-04-03T06:29:44;6.72;;;3.63;;
46054;SDS011;31788;6.954;-71.872;2023-04-03T06:32:10;6.95;;;4.00;;
46054;SDS011;31788;6.954;-71.872;2023-04-03T06:34:37;5.38;;;3.70;;
46054;SDS011;31788;6.954;-71.872;2023-04-03T06:37:03;4.88;;;3.25;;
46054;SDS011;31788;6.954;-71.872;2023-04-03T06:39:30;4.65;;;3.03;;
46054;SDS011;31788;6.954;-71.872;2023-04-03T06:41:57;6.20;;;3.08;;
46054;SDS011;31788;6.954;-71.872;2023-04-03T06:44:24;6.70;;;3.03;;
46054;SDS011;31788;6.954;-71.872;2023-04-03T06:46:51;5.75;;;3.17;;
46054;SDS011;31788;6.954;-71.872;2023-04-03T06:49:19;4.68;;;3.05;;
46054;SDS011;31788;6.954;-71.872;2023-04-03T06:51:46;5.10;;;2.80;;
46054;SDS011;31788;6.954;-71.872;2023-04-03T06:54:13;4.60;;;2.90;;
46054;SDS011;31788;6.954;-71.872;2023-04-03T06:56:40;4.43;;;3.13;;
46054;SDS011;31788;6.954;-71.872;2023-04-03T06:59:06;5.07;;;2.63;;
46054;SDS011;31788;6.954;-71.872;2023-04-03T07:01:33;4.00;;;2.60;;
46054;SDS011;31788;6.954;-71.872;2023-04-03T07:04:00;5.33;;;2.87;;
46054;SDS011;31788;6.954;-71.872;2023-04-03T07:06:27;5.90;;;3.13;;
46054;SDS011;31788;6.954;-71.872;2023-04-03T07:08:53;3.85;;;3.00;;
46054;SDS011;31788;6.954;-71.872;2023-04-03T07:11:20;5.93;;;2.83;;
46054;SDS011;31788;6.954;-71.872;2023-04-03T07:13:48;4.68;;;2.83;;
46054;SDS011;31788;6.954;-71.872;2023-04-03T07:16:14;4.97;;;2.65;;
46054;SDS011;31788;6.954;-71.872;2023-04-03T07:18:41;5.43;;;3.00;;
46054;SDS011;31788;6.954;-71.872;2023-04-03T07:21:08;4.50;;;2.67;;
46054;SDS011;31788;6.954;-71.872;2023-04-03T07:23:34;6.07;;;2.78;;
46054;SDS011;31788;6.954;-71.872;2023-04-03T07:26:01;6.68;;;2.75;;
46054;SDS011;31788;6.954;-71.872;2023-04-03T07:28:28;4.15;;;2.72;;
46054;SDS011;31788;6.954;-71.872;2023-04-03T07:31:02;4.93;;;2.78;;
46054;SDS011;31788;6.954;-71.872;2023-04-03T07:33:36;6.85;;;2.90;;
46054;SDS011;31788;6.954;-71.872;2023-04-03T07:36:03;5.50;;;2.75;;
46054;SDS011;31788;6.954;-71.872;2023-04-03T07:38:32;4.93;;;2.70;;
46054;SDS011;31788;6.954;-71.872;2023-04-03T07:41:00;4.18;;;2.65;;
46054;SDS011;31788;6.954;-71.872;2023-04-03T07:43:27;4.50;;;2.40;;
46054;SDS011;31788;6.954;-71.872;2023-04-03T07:45:54;4.43;;;2.75;;
46054;SDS011;31788;6.954;-71.872;2023-04-03T07:48:22;6.28;;;2.30;;
46054;SDS011;31788;6.954;-71.872;2023-04-03T07:50:50;4.25;;;2.50;;
46054;SDS011;31788;6.954;-71.872;2023-04-03T07:53:17;4.57;;;2.05;;
46054;SDS011;31788;6.954;-71.872;2023-04-03T07:55:47;3.47;;;1.95;;
46054;SDS011;31788;6.954;-71.872;2023-04-03T07:58:17;3.03;;;1.95;;
46054;SDS011;31788;6.954;-71.872;2023-04-03T08:00:44;4.93;;;2.40;;
46054;SDS011;31788;6.954;-71.872;2023-04-03T08:03:12;3.40;;;1.90;;
46054;SDS011;31788;6.954;-71.872;2023-04-03T08:05:42;4.60;;;2.08;;
46054;SDS011;31788;6.954;-71.872;2023-04-03T08:08:11;3.70;;;1.95;;
46054;SDS011;31788;6.954;-71.872;2023-04-03T08:10:40;4.25;;;2.10;;
46054;SDS011;31788;6.954;-71.872;2023-04-03T08:13:08;4.20;;;1.90;;
46054;SDS011;31788;6.954;-71.872;2023-04-03T08:15:35;4.18;;;2.08;;
46054;SDS011;31788;6.954;-71.872;2023-04-03T08:18:03;4.32;;;2.45;;
46054;SDS011;31788;6.954;-71.872;2023-04-03T08:20:30;5.03;;;2.00;;
46054;SDS011;31788;6.954;-71.872;2023-04-03T08:22:56;3.07;;;2.00;;
46054;SDS011;31788;6.954;-71.872;2023-04-03T08:25:23;3.70;;;1.95;;
46054;SDS011;31788;6.954;-71.872;2023-04-03T08:27:50;3.17;;;2.00;;
46054;SDS011;31788;6.954;-71.872;2023-04-03T08:30:16;4.70;;;2.03;;
46054;SDS011;31788;6.954;-71.872;2023-04-03T08:32:43;5.55;;;2.15;;
46054;SDS011;31788;6.954;-71.872;2023-04-03T08:35:10;4.20;;;2.00;;
46054;SDS011;31788;6.954;-71.872;2023-04-03T08:37:38;4.80;;;2.35;;
46054;SDS011;31788;6.954;-71.872;2023-04-03T08:40:05;3.65;;;2.30;;
46054;SDS011;31788;6.954;-71.872;2023-04-03T08:45:56;5.28;;;2.53;;
46054;SDS011;31788;6.954;-71.872;2023-04-03T08:48:29;5.50;;;2.90;;
46054;SDS011;31788;6.954;-71.872;2023-04-03T08:51:03;6.55;;;2.70;;
46054;SDS011;31788;6.954;-71.872;2023-04-03T08:53:39;6.70;;;3.08;;
46054;SDS011;31788;6.954;-71.872;2023-04-03T08:56:29;6.00;;;2.80;;
46054;SDS011;31788;6.954;-71.872;2023-04-03T08:59:04;6.38;;;3.03;;
46054;SDS011;31788;6.954;-71.872;2023-04-03T09:01:39;5.63;;;2.97;;
46054;SDS011;31788;6.954;-71.872;2023-04-03T09:04:11;7.43;;;2.85;;
46054;SDS011;31788;6.954;-71.872;2023-04-03T09:06:45;7.63;;;3.60;;
46054;SDS011;31788;6.954;-71.872;2023-04-03T09:09:31;5.85;;;2.80;;
46054;SDS011;31788;6.954;-71.872;2023-04-03T09:22:57;4.17;;;2.40;;
46054;SDS011;31788;6.954;-71.872;2023-04-03T09:25:34;4.45;;;2.40;;
46054;SDS011;31788;6.954;-71.872;2023-04-03T09:28:04;6.17;;;2.87;;
46054;SDS011;31788;6.954;-71.872;2023-04-03T09:30:35;5.10;;;2.53;;
46054;SDS011;31788;6.954;-71.872;2023-04-03T09:33:03;3.50;;;2.83;;
46054;SDS011;31788;6.954;-71.872;2023-04-03T09:35:36;7.10;;;2.80;;
46054;SDS011;31788;6.954;-71.872;2023-04-03T09:40:36;6.07;;;2.80;;
46054;SDS011;31788;6.954;-71.872;2023-04-03T09:45:55;4.40;;;3.20;;
46054;SDS011;31788;6.954;-71.872;2023-04-03T09:48:49;5.15;;;3.00;;
46054;SDS011;31788;6.954;-71.872;2023-04-03T09:51:27;7.45;;;3.22;;
46054;SDS011;31788;6.954;-71.872;2023-04-03T09:53:54;5.82;;;3.20;;
46054;SDS011;31788;6.954;-71.872;2023-04-03T09:56:23;6.00;;;3.53;;
46054;SDS011;31788;6.954;-71.872;2023-04-03T10:01:35;6.03;;;3.33;;
46054;SDS011;31788;6.954;-71.872;2023-04-03T10:06:45;5.72;;;3.10;;
46054;SDS011;31788;6.954;-71.872;2023-04-03T10:12:04;6.63;;;3.30;;
46054;SDS011;31788;6.954;-71.872;2023-04-03T10:15:17;4.82;;;3.10;;
46054;SDS011;31788;6.954;-71.872;2023-04-03T10:17:37;5.25;;;3.08;;
46054;SDS011;31788;6.954;-71.872;2023-04-03T10:22:48;6.45;;;2.92;;
46054;SDS011;31788;6.954;-71.872;2023-04-03T10:34:21;6.28;;;3.60;;
46054;SDS011;31788;6.954;-71.872;2023-04-03T10:37:21;5.57;;;3.40;;
46054;SDS011;31788;6.954;-71.872;2023-04-03T10:45:30;5.43;;;3.45;;
46054;SDS011;31788;6.954;-71.872;2023-04-03T10:53:52;5.72;;;3.60;;
46054;SDS011;31788;6.954;-71.872;2023-04-03T10:56:41;6.60;;;3.83;;
46054;SDS011;31788;6.954;-71.872;2023-04-03T11:02:07;5.47;;;3.00;;
46054;SDS011;31788;6.954;-71.872;2023-04-03T11:04:44;5.68;;;3.28;;
46054;SDS011;31788;6.954;-71.872;2023-04-03T11:07:20;4.68;;;3.35;;
46054;SDS011;31788;6.954;-71.872;2023-04-03T11:09:52;5.45;;;3.30;;
46054;SDS011;31788;6.954;-71.872;2023-04-03T11:15:15;5.07;;;3.23;;
46054;SDS011;31788;6.954;-71.872;2023-04-03T11:17:55;4.68;;;3.13;;
46054;SDS011;31788;6.954;-71.872;2023-04-03T11:20:28;5.65;;;3.10;;
46054;SDS011;31788;6.954;-71.872;2023-04-03T11:23:03;5.95;;;3.53;;
46054;SDS011;31788;6.954;-71.872;2023-04-03T11:25:45;6.83;;;3.40;;
46054;SDS011;31788;6.954;-71.872;2023-04-03T11:28:15;6.65;;;3.58;;
46054;SDS011;31788;6.954;-71.872;2023-04-03T11:36:35;6.65;;;3.85;;
46054;SDS011;31788;6.954;-71.872;2023-04-03T11:39:09;5.35;;;3.55;;
46054;SDS011;31788;6.954;-71.872;2023-04-03T11:41:49;4.93;;;3.42;;
46054;SDS011;31788;6.954;-71.872;2023-04-03T11:46:58;7.45;;;3.78;;
46054;SDS011;31788;6.954;-71.872;2023-04-03T11:58:02;5.07;;;3.88;;
46054;SDS011;31788;6.954;-71.872;2023-04-03T12:16:27;7.95;;;4.38;;
46054;SDS011;31788;6.954;-71.872;2023-04-03T12:18:56;7.65;;;3.97;;
46054;SDS011;31788;6.954;-71.872;2023-04-03T12:29:29;5.93;;;3.90;;
46054;SDS011;31788;6.954;-71.872;2023-04-03T12:35:09;6.10;;;3.50;;
46054;SDS011;31788;6.954;-71.872;2023-04-03T12:41:19;5.88;;;4.13;;
46054;SDS011;31788;6.954;-71.872;2023-04-03T12:46:43;7.22;;;4.13;;
46054;SDS011;31788;6.954;-71.872;2023-04-03T12:49:17;7.03;;;3.60;;
46054;SDS011;31788;6.954;-71.872;2023-04-03T12:52:05;7.22;;;3.60;;
46054;SDS011;31788;6.954;-71.872;2023-04-03T12:54:51;6.70;;;3.75;;
46054;SDS011;31788;6.954;-71.872;2023-04-03T12:57:20;8.20;;;3.90;;
46054;SDS011;31788;6.954;-71.872;2023-04-03T12:59:50;4.88;;;3.60;;
46054;SDS011;31788;6.954;-71.872;2023-04-03T13:02:30;6.13;;;3.75;;
46054;SDS011;31788;6.954;-71.872;2023-04-03T13:05:07;5.47;;;3.70;;
46054;SDS011;31788;6.954;-71.872;2023-04-03T13:07:36;5.18;;;3.97;;
46054;SDS011;31788;6.954;-71.872;2023-04-03T13:12:44;6.43;;;3.67;;
46054;SDS011;31788;6.954;-71.872;2023-04-03T13:15:58;4.68;;;3.60;;
46054;SDS011;31788;6.954;-71.872;2023-04-03T13:18:29;4.38;;;3.35;;
46054;SDS011;31788;6.954;-71.872;2023-04-03T13:20:57;6.20;;;3.70;;
46054;SDS011;31788;6.954;-71.872;2023-04-03T13:23:28;5.68;;;3.67;;
46054;SDS011;31788;6.954;-71.872;2023-04-03T13:25:57;7.40;;;3.67;;
46054;SDS011;31788;6.954;-71.872;2023-04-03T13:28:29;7.15;;;3.60;;
46054;SDS011;31788;6.954;-71.872;2023-04-03T13:34:01;6.20;;;3.53;;
46054;SDS011;31788;6.954;-71.872;2023-04-03T13:36:37;5.00;;;3.67;;
46054;SDS011;31788;6.954;-71.872;2023-04-03T13:39:17;4.50;;;3.40;;
46054;SDS011;31788;6.954;-71.872;2023-04-03T13:41:59;5.57;;;3.63;;
46054;SDS011;31788;6.954;-71.872;2023-04-03T13:44:40;5.35;;;3.47;;
46054;SDS011;31788;6.954;-71.872;2023-04-03T13:49:40;6.18;;;3.60;;
46054;SDS011;31788;6.954;-71.872;2023-04-03T13:52:23;7.18;;;3.90;;
46054;SDS011;31788;6.954;-71.872;2023-04-03T13:54:55;7.00;;;3.10;;
46054;SDS011;31788;6.954;-71.872;2023-04-03T13:57:26;5.00;;;3.63;;
46054;SDS011;31788;6.954;-71.872;2023-04-03T13:59:53;5.75;;;3.20;;
46054;SDS011;31788;6.954;-71.872;2023-04-03T14:02:38;5.73;;;3.40;;
46054;SDS011;31788;6.954;-71.872;2023-04-03T14:05:06;5.25;;;3.22;;
46054;SDS011;31788;6.954;-71.872;2023-04-03T14:07:34;5.20;;;2.97;;
46054;SDS011;31788;6.954;-71.872;2023-04-03T14:10:00;6.78;;;3.08;;
46054;SDS011;31788;6.954;-71.872;2023-04-03T14:12:34;5.45;;;3.00;;
46054;SDS011;31788;6.954;-71.872;2023-04-03T14:15:27;4.85;;;2.75;;
46054;SDS011;31788;6.954;-71.872;2023-04-03T14:17:55;3.60;;;2.78;;
46054;SDS011;31788;6.954;-71.872;2023-04-03T14:20:22;5.50;;;2.92;;
46054;SDS011;31788;6.954;-71.872;2023-04-03T14:22:52;3.72;;;2.72;;
46054;SDS011;31788;6.954;-71.872;2023-04-03T14:25:20;4.97;;;2.90;;
46054;SDS011;31788;6.954;-71.872;2023-04-03T14:27:51;4.70;;;2.80;;
46054;SDS011;31788;6.954;-71.872;2023-04-03T14:32:50;6.32;;;3.30;;
46054;SDS011;31788;6.954;-71.872;2023-04-03T14:35:18;5.22;;;3.20;;
46054;SDS011;31788;6.954;-71.872;2023-04-03T14:37:45;4.15;;;3.15;;
46054;SDS011;31788;6.954;-71.872;2023-04-03T14:40:15;6.00;;;3.03;;
46054;SDS011;31788;6.954;-71.872;2023-04-03T14:42:44;6.25;;;3.30;;
46054;SDS011;31788;6.954;-71.872;2023-04-03T14:45:12;4.75;;;3.30;;
46054;SDS011;31788;6.954;-71.872;2023-04-03T14:47:44;5.70;;;3.30;;
46054;SDS011;31788;6.954;-71.872;2023-04-03T14:50:14;5.40;;;3.80;;
46054;SDS011;31788;6.954;-71.872;2023-04-03T14:52:43;6.07;;;3.90;;
46054;SDS011;31788;6.954;-71.872;2023-04-03T14:55:12;5.95;;;3.72;;
46054;SDS011;31788;6.954;-71.872;2023-04-03T14:57:44;6.40;;;4.33;;
46054;SDS011;31788;6.954;-71.872;2023-04-03T15:00:13;5.22;;;4.40;;
46054;SDS011;31788;6.954;-71.872;2023-04-03T15:02:41;7.05;;;4.60;;
46054;SDS011;31788;6.954;-71.872;2023-04-03T15:05:08;6.75;;;4.55;;
46054;SDS011;31788;6.954;-71.872;2023-04-03T15:07:37;7.55;;;5.10;;
46054;SDS011;31788;6.954;-71.872;2023-04-03T15:12:49;6.78;;;5.07;;
46054;SDS011;31788;6.954;-71.872;2023-04-03T15:15:18;7.55;;;5.82;;
46054;SDS011;31788;6.954;-71.872;2023-04-03T15:17:45;9.48;;;5.70;;
46054;SDS011;31788;6.954;-71.872;2023-04-03T15:20:16;7.93;;;5.50;;
46054;SDS011;31788;6.954;-71.872;2023-04-03T15:22:44;8.80;;;5.87;;
46054;SDS011;31788;6.954;-71.872;2023-04-03T15:25:11;7.57;;;5.80;;
46054;SDS011;31788;6.954;-71.872;2023-04-03T15:27:38;10.50;;;6.07;;
46054;SDS011;31788;6.954;-71.872;2023-04-03T15:30:06;9.15;;;6.40;;
46054;SDS011;31788;6.954;-71.872;2023-04-03T15:32:36;10.60;;;6.93;;
46054;SDS011;31788;6.954;-71.872;2023-04-03T15:35:03;11.60;;;8.80;;
46054;SDS011;31788;6.954;-71.872;2023-04-03T15:37:30;15.73;;;12.13;;
46054;SDS011;31788;6.954;-71.872;2023-04-03T15:39:57;13.90;;;11.35;;
46054;SDS011;31788;6.954;-71.872;2023-04-03T15:42:25;16.20;;;11.30;;
46054;SDS011;31788;6.954;-71.872;2023-04-03T15:44:51;16.27;;;11.25;;
46054;SDS011;31788;6.954;-71.872;2023-04-03T15:47:18;16.58;;;11.48;;
46054;SDS011;31788;6.954;-71.872;2023-04-03T15:49:45;17.20;;;12.85;;
46054;SDS011;31788;6.954;-71.872;2023-04-03T15:52:11;14.23;;;11.98;;
46054;SDS011;31788;6.954;-71.872;2023-04-03T15:54:38;16.10;;;12.75;;
46054;SDS011;31788;6.954;-71.872;2023-04-03T15:57:06;16.30;;;12.00;;
46054;SDS011;31788;6.954;-71.872;2023-04-03T15:59:32;15.57;;;11.80;;
46054;SDS011;31788;6.954;-71.872;2023-04-03T16:01:59;13.35;;;10.95;;
46054;SDS011;31788;6.954;-71.872;2023-04-03T16:04:29;14.18;;;9.77;;
46054;SDS011;31788;6.954;-71.872;2023-04-03T16:06:56;13.47;;;9.87;;
46054;SDS011;31788;6.954;-71.872;2023-04-03T16:09:23;15.60;;;10.52;;
46054;SDS011;31788;6.954;-71.872;2023-04-03T16:11:50;15.70;;;10.80;;
46054;SDS011;31788;6.954;-71.872;2023-04-03T16:14:17;13.07;;;10.93;;
46054;SDS011;31788;6.954;-71.872;2023-04-03T16:16:45;14.13;;;10.52;;
46054;SDS011;31788;6.954;-71.872;2023-04-03T16:19:13;12.95;;;10.15;;
46054;SDS011;31788;6.954;-71.872;2023-04-03T16:21:39;14.48;;;9.88;;
46054;SDS011;31788;6.954;-71.872;2023-04-03T16:24:06;12.63;;;10.07;;
46054;SDS011;31788;6.954;-71.872;2023-04-03T16:26:33;13.35;;;9.93;;
46054;SDS011;31788;6.954;-71.872;2023-04-03T16:28:59;12.02;;;9.32;;
46054;SDS011;31788;6.954;-71.872;2023-04-03T16:31:26;11.95;;;8.88;;
46054;SDS011;31788;6.954;-71.872;2023-04-03T16:33:54;11.30;;;8.98;;
46054;SDS011;31788;6.954;-71.872;2023-04-03T16:36:21;13.15;;;9.32;;
46054;SDS011;31788;6.954;-71.872;2023-04-03T16:38:49;12.45;;;9.40;;
46054;SDS011;31788;6.954;-71.872;2023-04-03T16:41:15;11.70;;;8.95;;
46054;SDS011;31788;6.954;-71.872;2023-04-03T16:43:42;11.60;;;9.43;;
46054;SDS011;31788;6.954;-71.872;2023-04-03T16:46:09;12.07;;;9.02;;
46054;SDS011;31788;6.954;-71.872;2023-04-03T16:48:36;11.68;;;9.02;;
46054;SDS011;31788;6.954;-71.872;2023-04-03T16:51:03;13.18;;;9.23;;